sensor_id;sensor_type;location;lat;lon;timestamp;P1;durP1;ratioP1;P2;durP2;ratioP2
30147;SDS011;16960;49.404;8.248;2023-04-24T00:02:01;3.83;;;0.77;;
30147;SDS011;16960;49.404;8.248;2023-04-24T00:04:29;0.90;;;0.60;;
30147;SDS011;16960;49.404;8.248;2023-04-24T00:06:56;1.13;;;0.60;;
30147;SDS011;16960;49.404;8.248;2023-04-24T00:09:26;0.90;;;0.70;;
30147;SDS011;16960;49.404;8.248;2023-04-24T00:11:53;0.67;;;0.60;;
30147;SDS011;16960;49.404;8.248;2023-04-24T00:14:21;1.33;;;0.50;;
30147;SDS011;16960;49.404;8.248;2023-04-24T00:16:48;1.37;;;0.50;;
30147;SDS011;16960;49.404;8.248;2023-04-24T00:19:15;0.87;;;0.50;;
30147;SDS011;16960;49.404;8.248;2023-04-24T00:21:42;0.70;;;0.70;;
30147;SDS011;16960;49.404;8.248;2023-04-24T00:24:08;0.93;;;0.80;;
30147;SDS011;16960;49.404;8.248;2023-04-24T00:26:37;0.70;;;0.47;;
30147;SDS011;16960;49.404;8.248;2023-04-24T00:29:04;0.43;;;0.40;;
30147;SDS011;16960;49.404;8.248;2023-04-24T00:31:31;0.80;;;0.40;;
30147;SDS011;16960;49.404;8.248;2023-04-24T00:33:59;1.43;;;0.60;;
30147;SDS011;16960;49.404;8.248;2023-04-24T00:36:27;1.70;;;0.50;;
30147;SDS011;16960;49.404;8.248;2023-04-24T00:38:55;0.97;;;0.70;;
30147;SDS011;16960;49.404;8.248;2023-04-24T00:41:23;1.07;;;0.50;;
30147;SDS011;16960;49.404;8.248;2023-04-24T00:43:53;1.43;;;0.70;;
30147;SDS011;16960;49.404;8.248;2023-04-24T00:46:20;0.40;;;0.40;;
30147;SDS011;16960;49.404;8.248;2023-04-24T00:48:47;0.53;;;0.53;;
30147;SDS011;16960;49.404;8.248;2023-04-24T00:51:14;0.90;;;0.53;;
30147;SDS011;16960;49.404;8.248;2023-04-24T00:53:41;0.73;;;0.50;;
30147;SDS011;16960;49.404;8.248;2023-04-24T00:56:08;0.57;;;0.40;;
30147;SDS011;16960;49.404;8.248;2023-04-24T00:58:35;1.40;;;0.57;;
30147;SDS011;16960;49.404;8.248;2023-04-24T01:01:04;0.80;;;0.70;;
30147;SDS011;16960;49.404;8.248;2023-04-24T01:03:32;1.07;;;0.77;;
30147;SDS011;16960;49.404;8.248;2023-04-24T01:06:02;0.63;;;0.50;;
30147;SDS011;16960;49.404;8.248;2023-04-24T01:08:30;0.57;;;0.47;;
30147;SDS011;16960;49.404;8.248;2023-04-24T01:10:57;0.60;;;0.60;;
30147;SDS011;16960;49.404;8.248;2023-04-24T01:13:24;0.60;;;0.60;;
30147;SDS011;16960;49.404;8.248;2023-04-24T01:15:51;0.90;;;0.60;;
30147;SDS011;16960;49.404;8.248;2023-04-24T01:18:19;0.73;;;0.60;;
30147;SDS011;16960;49.404;8.248;2023-04-24T01:20:47;0.70;;;0.50;;
30147;SDS011;16960;49.404;8.248;2023-04-24T01:23:18;0.60;;;0.50;;
30147;SDS011;16960;49.404;8.248;2023-04-24T01:25:45;0.50;;;0.50;;
30147;SDS011;16960;49.404;8.248;2023-04-24T01:28:13;1.17;;;0.80;;
30147;SDS011;16960;49.404;8.248;2023-04-24T01:30:40;0.70;;;0.60;;
30147;SDS011;16960;49.404;8.248;2023-04-24T01:33:07;1.10;;;0.70;;
30147;SDS011;16960;49.404;8.248;2023-04-24T01:35:35;0.67;;;0.47;;
30147;SDS011;16960;49.404;8.248;2023-04-24T01:38:03;0.40;;;0.40;;
30147;SDS011;16960;49.404;8.248;2023-04-24T01:40:32;0.57;;;0.57;;
30147;SDS011;16960;49.404;8.248;2023-04-24T01:42:59;0.60;;;0.60;;
30147;SDS011;16960;49.404;8.248;2023-04-24T01:45:26;1.00;;;0.63;;
30147;SDS011;16960;49.404;8.248;2023-04-24T01:47:53;1.27;;;0.50;;
30147;SDS011;16960;49.404;8.248;2023-04-24T01:50:20;1.20;;;0.60;;
30147;SDS011;16960;49.404;8.248;2023-04-24T01:52:47;0.40;;;0.40;;
30147;SDS011;16960;49.404;8.248;2023-04-24T01:55:14;1.03;;;0.40;;
30147;SDS011;16960;49.404;8.248;2023-04-24T01:57:42;0.60;;;0.50;;
30147;SDS011;16960;49.404;8.248;2023-04-24T02:00:09;0.83;;;0.43;;
30147;SDS011;16960;49.404;8.248;2023-04-24T02:02:37;0.90;;;0.60;;
30147;SDS011;16960;49.404;8.248;2023-04-24T02:05:05;1.77;;;0.63;;
30147;SDS011;16960;49.404;8.248;2023-04-24T02:07:33;0.97;;;0.50;;
30147;SDS011;16960;49.404;8.248;2023-04-24T02:10:00;0.93;;;0.40;;
30147;SDS011;16960;49.404;8.248;2023-04-24T02:12:27;0.87;;;0.67;;
30147;SDS011;16960;49.404;8.248;2023-04-24T02:14:55;0.70;;;0.60;;
30147;SDS011;16960;49.404;8.248;2023-04-24T02:17:22;0.70;;;0.50;;
30147;SDS011;16960;49.404;8.248;2023-04-24T02:19:49;0.70;;;0.50;;
30147;SDS011;16960;49.404;8.248;2023-04-24T02:22:16;1.00;;;0.50;;
30147;SDS011;16960;49.404;8.248;2023-04-24T02:24:43;0.53;;;0.50;;
30147;SDS011;16960;49.404;8.248;2023-04-24T02:27:11;0.60;;;0.50;;
30147;SDS011;16960;49.404;8.248;2023-04-24T02:29:37;0.93;;;0.67;;
30147;SDS011;16960;49.404;8.248;2023-04-24T02:32:06;0.60;;;0.50;;
30147;SDS011;16960;49.404;8.248;2023-04-24T02:34:36;1.00;;;0.60;;
30147;SDS011;16960;49.404;8.248;2023-04-24T02:37:03;0.60;;;0.57;;
30147;SDS011;16960;49.404;8.248;2023-04-24T02:39:30;0.70;;;0.70;;
30147;SDS011;16960;49.404;8.248;2023-04-24T02:41:57;0.80;;;0.63;;
30147;SDS011;16960;49.404;8.248;2023-04-24T02:44:25;1.33;;;0.53;;
30147;SDS011;16960;49.404;8.248;2023-04-24T02:46:51;0.60;;;0.57;;
30147;SDS011;16960;49.404;8.248;2023-04-24T02:49:20;1.13;;;0.77;;
30147;SDS011;16960;49.404;8.248;2023-04-24T02:51:47;0.60;;;0.50;;
30147;SDS011;16960;49.404;8.248;2023-04-24T02:54:13;1.10;;;0.60;;
30147;SDS011;16960;49.404;8.248;2023-04-24T02:56:40;0.70;;;0.50;;
30147;SDS011;16960;49.404;8.248;2023-04-24T02:59:08;0.50;;;0.40;;
30147;SDS011;16960;49.404;8.248;2023-04-24T03:01:35;0.60;;;0.50;;
30147;SDS011;16960;49.404;8.248;2023-04-24T03:04:02;1.23;;;0.67;;
30147;SDS011;16960;49.404;8.248;2023-04-24T03:06:31;0.80;;;0.70;;
30147;SDS011;16960;49.404;8.248;2023-04-24T03:09:00;0.60;;;0.50;;
30147;SDS011;16960;49.404;8.248;2023-04-24T03:11:28;1.63;;;0.63;;
30147;SDS011;16960;49.404;8.248;2023-04-24T03:13:55;1.43;;;0.67;;
30147;SDS011;16960;49.404;8.248;2023-04-24T03:16:22;0.67;;;0.67;;
30147;SDS011;16960;49.404;8.248;2023-04-24T03:18:49;0.83;;;0.50;;
30147;SDS011;16960;49.404;8.248;2023-04-24T03:21:16;0.80;;;0.60;;
30147;SDS011;16960;49.404;8.248;2023-04-24T03:23:44;1.10;;;0.50;;
30147;SDS011;16960;49.404;8.248;2023-04-24T03:26:11;0.70;;;0.60;;
30147;SDS011;16960;49.404;8.248;2023-04-24T03:28:38;0.50;;;0.50;;
30147;SDS011;16960;49.404;8.248;2023-04-24T03:31:04;0.80;;;0.70;;
30147;SDS011;16960;49.404;8.248;2023-04-24T03:33:31;0.90;;;0.40;;
30147;SDS011;16960;49.404;8.248;2023-04-24T03:35:58;0.50;;;0.43;;
30147;SDS011;16960;49.404;8.248;2023-04-24T03:38:25;0.40;;;0.40;;
30147;SDS011;16960;49.404;8.248;2023-04-24T03:40:53;0.50;;;0.50;;
30147;SDS011;16960;49.404;8.248;2023-04-24T03:43:20;0.60;;;0.57;;
30147;SDS011;16960;49.404;8.248;2023-04-24T03:45:47;0.60;;;0.43;;
30147;SDS011;16960;49.404;8.248;2023-04-24T03:48:14;0.70;;;0.70;;
30147;SDS011;16960;49.404;8.248;2023-04-24T03:50:41;1.00;;;0.63;;
30147;SDS011;16960;49.404;8.248;2023-04-24T03:53:08;1.53;;;0.80;;
30147;SDS011;16960;49.404;8.248;2023-04-24T03:55:35;0.67;;;0.67;;
30147;SDS011;16960;49.404;8.248;2023-04-24T03:58:03;1.50;;;0.60;;
30147;SDS011;16960;49.404;8.248;2023-04-24T04:00:31;0.60;;;0.60;;
30147;SDS011;16960;49.404;8.248;2023-04-24T04:02:58;0.60;;;0.60;;
30147;SDS011;16960;49.404;8.248;2023-04-24T04:05:25;0.50;;;0.50;;
30147;SDS011;16960;49.404;8.248;2023-04-24T04:07:52;0.50;;;0.50;;
30147;SDS011;16960;49.404;8.248;2023-04-24T04:10:19;0.73;;;0.60;;
30147;SDS011;16960;49.404;8.248;2023-04-24T04:12:46;0.70;;;0.60;;
30147;SDS011;16960;49.404;8.248;2023-04-24T04:15:14;0.53;;;0.50;;
30147;SDS011;16960;49.404;8.248;2023-04-24T04:17:41;0.57;;;0.50;;
30147;SDS011;16960;49.404;8.248;2023-04-24T04:20:08;0.70;;;0.50;;
30147;SDS011;16960;49.404;8.248;2023-04-24T04:22:36;0.60;;;0.40;;
30147;SDS011;16960;49.404;8.248;2023-04-24T04:25:03;1.10;;;0.80;;
30147;SDS011;16960;49.404;8.248;2023-04-24T04:27:30;0.83;;;0.83;;
30147;SDS011;16960;49.404;8.248;2023-04-24T04:29:58;0.87;;;0.87;;
30147;SDS011;16960;49.404;8.248;2023-04-24T04:32:30;0.93;;;0.70;;
30147;SDS011;16960;49.404;8.248;2023-04-24T04:34:58;0.60;;;0.50;;
30147;SDS011;16960;49.404;8.248;2023-04-24T04:37:28;0.77;;;0.77;;
30147;SDS011;16960;49.404;8.248;2023-04-24T04:39:55;1.73;;;0.70;;
30147;SDS011;16960;49.404;8.248;2023-04-24T04:42:23;1.00;;;0.50;;
30147;SDS011;16960;49.404;8.248;2023-04-24T04:44:50;0.70;;;0.70;;
30147;SDS011;16960;49.404;8.248;2023-04-24T04:47:17;1.27;;;0.73;;
30147;SDS011;16960;49.404;8.248;2023-04-24T04:49:45;1.10;;;0.80;;
30147;SDS011;16960;49.404;8.248;2023-04-24T04:52:13;0.57;;;0.53;;
30147;SDS011;16960;49.404;8.248;2023-04-24T04:54:42;1.00;;;0.80;;
30147;SDS011;16960;49.404;8.248;2023-04-24T04:57:08;0.60;;;0.60;;
30147;SDS011;16960;49.404;8.248;2023-04-24T04:59:37;0.70;;;0.70;;
30147;SDS011;16960;49.404;8.248;2023-04-24T05:02:04;0.60;;;0.60;;
30147;SDS011;16960;49.404;8.248;2023-04-24T05:04:30;0.77;;;0.50;;
30147;SDS011;16960;49.404;8.248;2023-04-24T05:06:59;0.60;;;0.60;;
30147;SDS011;16960;49.404;8.248;2023-04-24T05:09:26;1.40;;;0.70;;
30147;SDS011;16960;49.404;8.248;2023-04-24T05:11:54;0.87;;;0.70;;
30147;SDS011;16960;49.404;8.248;2023-04-24T05:14:21;1.40;;;1.00;;
30147;SDS011;16960;49.404;8.248;2023-04-24T05:16:48;0.73;;;0.70;;
30147;SDS011;16960;49.404;8.248;2023-04-24T05:19:15;0.90;;;0.90;;
30147;SDS011;16960;49.404;8.248;2023-04-24T05:21:42;0.70;;;0.70;;
30147;SDS011;16960;49.404;8.248;2023-04-24T05:24:10;0.80;;;0.80;;
30147;SDS011;16960;49.404;8.248;2023-04-24T05:26:37;1.23;;;1.10;;
30147;SDS011;16960;49.404;8.248;2023-04-24T05:29:04;1.60;;;0.80;;
30147;SDS011;16960;49.404;8.248;2023-04-24T05:31:31;0.80;;;0.60;;
30147;SDS011;16960;49.404;8.248;2023-04-24T05:33:58;0.73;;;0.73;;
30147;SDS011;16960;49.404;8.248;2023-04-24T05:36:25;0.63;;;0.60;;
30147;SDS011;16960;49.404;8.248;2023-04-24T05:38:52;0.90;;;0.70;;
30147;SDS011;16960;49.404;8.248;2023-04-24T05:41:21;1.03;;;0.67;;
30147;SDS011;16960;49.404;8.248;2023-04-24T05:43:48;1.03;;;0.80;;
30147;SDS011;16960;49.404;8.248;2023-04-24T05:46:16;2.80;;;0.90;;
30147;SDS011;16960;49.404;8.248;2023-04-24T05:48:43;0.80;;;0.80;;
30147;SDS011;16960;49.404;8.248;2023-04-24T05:51:10;1.20;;;0.83;;
30147;SDS011;16960;49.404;8.248;2023-04-24T05:53:36;0.70;;;0.63;;
30147;SDS011;16960;49.404;8.248;2023-04-24T05:56:04;1.03;;;0.83;;
30147;SDS011;16960;49.404;8.248;2023-04-24T05:58:32;1.30;;;1.07;;
30147;SDS011;16960;49.404;8.248;2023-04-24T06:00:59;3.40;;;0.90;;
30147;SDS011;16960;49.404;8.248;2023-04-24T06:03:27;3.60;;;1.03;;
30147;SDS011;16960;49.404;8.248;2023-04-24T06:05:54;3.60;;;0.93;;
30147;SDS011;16960;49.404;8.248;2023-04-24T06:08:21;1.20;;;0.93;;
30147;SDS011;16960;49.404;8.248;2023-04-24T06:10:48;1.47;;;0.93;;
30147;SDS011;16960;49.404;8.248;2023-04-24T06:13:15;0.83;;;0.80;;
30147;SDS011;16960;49.404;8.248;2023-04-24T06:15:43;1.27;;;0.93;;
30147;SDS011;16960;49.404;8.248;2023-04-24T06:18:10;1.10;;;0.90;;
30147;SDS011;16960;49.404;8.248;2023-04-24T06:20:37;1.30;;;1.10;;
30147;SDS011;16960;49.404;8.248;2023-04-24T06:23:05;1.10;;;1.00;;
30147;SDS011;16960;49.404;8.248;2023-04-24T06:25:31;0.90;;;0.80;;
30147;SDS011;16960;49.404;8.248;2023-04-24T06:27:59;1.27;;;0.90;;
30147;SDS011;16960;49.404;8.248;2023-04-24T06:30:26;0.90;;;0.80;;
30147;SDS011;16960;49.404;8.248;2023-04-24T06:32:55;1.37;;;0.83;;
30147;SDS011;16960;49.404;8.248;2023-04-24T06:35:22;2.03;;;0.90;;
30147;SDS011;16960;49.404;8.248;2023-04-24T06:37:49;0.80;;;0.80;;
30147;SDS011;16960;49.404;8.248;2023-04-24T06:40:16;1.50;;;0.67;;
30147;SDS011;16960;49.404;8.248;2023-04-24T06:42:43;1.00;;;0.90;;
30147;SDS011;16960;49.404;8.248;2023-04-24T06:45:10;0.70;;;0.70;;
30147;SDS011;16960;49.404;8.248;2023-04-24T06:47:37;2.83;;;0.87;;
30147;SDS011;16960;49.404;8.248;2023-04-24T06:50:06;1.43;;;0.93;;
30147;SDS011;16960;49.404;8.248;2023-04-24T06:52:34;0.80;;;0.73;;
30147;SDS011;16960;49.404;8.248;2023-04-24T06:55:01;0.80;;;0.80;;
30147;SDS011;16960;49.404;8.248;2023-04-24T06:57:29;1.33;;;1.03;;
30147;SDS011;16960;49.404;8.248;2023-04-24T06:59:56;2.40;;;1.10;;
30147;SDS011;16960;49.404;8.248;2023-04-24T07:02:23;1.80;;;0.90;;
30147;SDS011;16960;49.404;8.248;2023-04-24T07:04:50;0.83;;;0.83;;
30147;SDS011;16960;49.404;8.248;2023-04-24T07:07:19;1.00;;;0.83;;
30147;SDS011;16960;49.404;8.248;2023-04-24T07:09:46;1.30;;;1.00;;
30147;SDS011;16960;49.404;8.248;2023-04-24T07:12:13;1.73;;;0.90;;
30147;SDS011;16960;49.404;8.248;2023-04-24T07:14:42;0.77;;;0.77;;
30147;SDS011;16960;49.404;8.248;2023-04-24T07:17:09;1.40;;;1.17;;
30147;SDS011;16960;49.404;8.248;2023-04-24T07:19:38;1.83;;;0.80;;
30147;SDS011;16960;49.404;8.248;2023-04-24T07:22:05;0.90;;;0.90;;
30147;SDS011;16960;49.404;8.248;2023-04-24T07:24:33;1.57;;;1.00;;
30147;SDS011;16960;49.404;8.248;2023-04-24T07:27:00;1.07;;;1.00;;
30147;SDS011;16960;49.404;8.248;2023-04-24T07:29:27;1.67;;;0.90;;
30147;SDS011;16960;49.404;8.248;2023-04-24T07:31:54;1.30;;;1.20;;
30147;SDS011;16960;49.404;8.248;2023-04-24T07:34:21;5.93;;;0.90;;
30147;SDS011;16960;49.404;8.248;2023-04-24T07:36:48;1.00;;;0.90;;
30147;SDS011;16960;49.404;8.248;2023-04-24T07:39:16;1.10;;;1.00;;
30147;SDS011;16960;49.404;8.248;2023-04-24T07:41:44;1.20;;;1.07;;
30147;SDS011;16960;49.404;8.248;2023-04-24T07:44:11;1.90;;;1.27;;
30147;SDS011;16960;49.404;8.248;2023-04-24T07:46:38;0.80;;;0.80;;
30147;SDS011;16960;49.404;8.248;2023-04-24T07:49:06;1.73;;;1.00;;
30147;SDS011;16960;49.404;8.248;2023-04-24T07:51:33;1.80;;;1.10;;
30147;SDS011;16960;49.404;8.248;2023-04-24T07:54:03;3.30;;;1.37;;
30147;SDS011;16960;49.404;8.248;2023-04-24T07:56:31;1.10;;;1.00;;
30147;SDS011;16960;49.404;8.248;2023-04-24T07:59:00;1.10;;;1.00;;
30147;SDS011;16960;49.404;8.248;2023-04-24T08:01:27;2.50;;;1.13;;
30147;SDS011;16960;49.404;8.248;2023-04-24T08:03:54;2.27;;;1.47;;
30147;SDS011;16960;49.404;8.248;2023-04-24T08:06:21;3.63;;;1.20;;
30147;SDS011;16960;49.404;8.248;2023-04-24T08:08:48;1.60;;;1.50;;
30147;SDS011;16960;49.404;8.248;2023-04-24T08:11:16;1.67;;;1.07;;
30147;SDS011;16960;49.404;8.248;2023-04-24T08:13:43;1.00;;;0.93;;
30147;SDS011;16960;49.404;8.248;2023-04-24T08:16:12;1.30;;;1.10;;
30147;SDS011;16960;49.404;8.248;2023-04-24T08:18:39;1.30;;;1.20;;
30147;SDS011;16960;49.404;8.248;2023-04-24T08:21:06;1.17;;;1.07;;
30147;SDS011;16960;49.404;8.248;2023-04-24T08:23:33;2.20;;;1.33;;
30147;SDS011;16960;49.404;8.248;2023-04-24T08:26:00;2.20;;;1.43;;
30147;SDS011;16960;49.404;8.248;2023-04-24T08:28:28;1.10;;;1.00;;
30147;SDS011;16960;49.404;8.248;2023-04-24T08:30:55;2.20;;;1.43;;
30147;SDS011;16960;49.404;8.248;2023-04-24T08:33:23;1.20;;;1.10;;
30147;SDS011;16960;49.404;8.248;2023-04-24T08:35:51;2.30;;;1.23;;
30147;SDS011;16960;49.404;8.248;2023-04-24T08:38:18;1.57;;;1.43;;
30147;SDS011;16960;49.404;8.248;2023-04-24T08:40:47;2.20;;;1.40;;
30147;SDS011;16960;49.404;8.248;2023-04-24T08:43:14;1.43;;;1.10;;
30147;SDS011;16960;49.404;8.248;2023-04-24T08:45:42;2.47;;;0.97;;
30147;SDS011;16960;49.404;8.248;2023-04-24T08:48:09;3.33;;;1.17;;
30147;SDS011;16960;49.404;8.248;2023-04-24T08:50:39;0.90;;;0.90;;
30147;SDS011;16960;49.404;8.248;2023-04-24T08:53:08;2.23;;;1.40;;
30147;SDS011;16960;49.404;8.248;2023-04-24T08:55:35;1.77;;;1.27;;
30147;SDS011;16960;49.404;8.248;2023-04-24T08:58:03;4.53;;;1.20;;
30147;SDS011;16960;49.404;8.248;2023-04-24T09:00:30;1.40;;;1.00;;
30147;SDS011;16960;49.404;8.248;2023-04-24T09:03:00;2.00;;;1.20;;
30147;SDS011;16960;49.404;8.248;2023-04-24T09:05:28;1.50;;;1.30;;
30147;SDS011;16960;49.404;8.248;2023-04-24T09:07:57;1.20;;;1.10;;
30147;SDS011;16960;49.404;8.248;2023-04-24T09:10:28;1.70;;;1.20;;
30147;SDS011;16960;49.404;8.248;2023-04-24T09:12:56;0.93;;;0.93;;
30147;SDS011;16960;49.404;8.248;2023-04-24T09:15:27;1.83;;;1.13;;
30147;SDS011;16960;49.404;8.248;2023-04-24T09:17:55;1.37;;;1.23;;
30147;SDS011;16960;49.404;8.248;2023-04-24T09:20:22;1.80;;;1.20;;
30147;SDS011;16960;49.404;8.248;2023-04-24T09:22:52;1.30;;;1.20;;
30147;SDS011;16960;49.404;8.248;2023-04-24T09:25:22;1.13;;;1.07;;
30147;SDS011;16960;49.404;8.248;2023-04-24T09:27:50;1.87;;;0.93;;
30147;SDS011;16960;49.404;8.248;2023-04-24T09:30:21;1.50;;;1.37;;
30147;SDS011;16960;49.404;8.248;2023-04-24T09:32:48;1.40;;;1.30;;
30147;SDS011;16960;49.404;8.248;2023-04-24T09:35:15;1.33;;;1.23;;
30147;SDS011;16960;49.404;8.248;2023-04-24T09:37:43;2.20;;;1.20;;
30147;SDS011;16960;49.404;8.248;2023-04-24T09:40:11;1.57;;;1.33;;
30147;SDS011;16960;49.404;8.248;2023-04-24T09:42:51;1.20;;;1.10;;
30147;SDS011;16960;49.404;8.248;2023-04-24T09:45:18;1.30;;;1.20;;
30147;SDS011;16960;49.404;8.248;2023-04-24T09:47:46;1.27;;;1.10;;
30147;SDS011;16960;49.404;8.248;2023-04-24T09:50:18;1.43;;;1.10;;
30147;SDS011;16960;49.404;8.248;2023-04-24T09:52:46;0.90;;;0.80;;
30147;SDS011;16960;49.404;8.248;2023-04-24T09:55:21;1.30;;;1.20;;
30147;SDS011;16960;49.404;8.248;2023-04-24T09:57:51;1.20;;;1.10;;
30147;SDS011;16960;49.404;8.248;2023-04-24T10:00:23;1.10;;;1.03;;
30147;SDS011;16960;49.404;8.248;2023-04-24T10:02:55;1.83;;;1.00;;
30147;SDS011;16960;49.404;8.248;2023-04-24T10:05:23;1.50;;;1.20;;
30147;SDS011;16960;49.404;8.248;2023-04-24T10:07:51;1.13;;;1.00;;
30147;SDS011;16960;49.404;8.248;2023-04-24T10:10:22;1.07;;;0.97;;
30147;SDS011;16960;49.404;8.248;2023-04-24T10:12:50;1.20;;;1.10;;
30147;SDS011;16960;49.404;8.248;2023-04-24T10:15:18;1.13;;;1.03;;
30147;SDS011;16960;49.404;8.248;2023-04-24T10:17:46;1.43;;;1.20;;
30147;SDS011;16960;49.404;8.248;2023-04-24T10:20:18;1.20;;;1.10;;
30147;SDS011;16960;49.404;8.248;2023-04-24T10:22:47;1.27;;;1.07;;
30147;SDS011;16960;49.404;8.248;2023-04-24T10:25:16;2.20;;;1.00;;
30147;SDS011;16960;49.404;8.248;2023-04-24T10:27:45;1.10;;;0.90;;
30147;SDS011;16960;49.404;8.248;2023-04-24T10:30:14;1.70;;;1.20;;
30147;SDS011;16960;49.404;8.248;2023-04-24T10:32:42;2.10;;;1.13;;
30147;SDS011;16960;49.404;8.248;2023-04-24T10:35:09;1.17;;;1.07;;
30147;SDS011;16960;49.404;8.248;2023-04-24T10:37:39;1.47;;;1.20;;
30147;SDS011;16960;49.404;8.248;2023-04-24T10:40:09;1.10;;;1.00;;
30147;SDS011;16960;49.404;8.248;2023-04-24T10:42:39;1.17;;;1.00;;
30147;SDS011;16960;49.404;8.248;2023-04-24T10:45:17;0.83;;;0.83;;
30147;SDS011;16960;49.404;8.248;2023-04-24T10:47:53;1.30;;;1.13;;
30147;SDS011;16960;49.404;8.248;2023-04-24T10:50:25;2.10;;;1.07;;
30147;SDS011;16960;49.404;8.248;2023-04-24T10:52:53;1.77;;;1.67;;
30147;SDS011;16960;49.404;8.248;2023-04-24T10:55:40;1.80;;;1.30;;
30147;SDS011;16960;49.404;8.248;2023-04-24T10:58:09;0.90;;;0.90;;
30147;SDS011;16960;49.404;8.248;2023-04-24T11:00:38;1.20;;;1.10;;
30147;SDS011;16960;49.404;8.248;2023-04-24T11:03:07;2.57;;;1.30;;
30147;SDS011;16960;49.404;8.248;2023-04-24T11:08:38;1.17;;;0.97;;
30147;SDS011;16960;49.404;8.248;2023-04-24T11:11:09;1.63;;;1.53;;
30147;SDS011;16960;49.404;8.248;2023-04-24T11:16:34;1.57;;;1.27;;
30147;SDS011;16960;49.404;8.248;2023-04-24T11:19:05;1.93;;;1.50;;
30147;SDS011;16960;49.404;8.248;2023-04-24T11:21:40;1.20;;;1.10;;
30147;SDS011;16960;49.404;8.248;2023-04-24T11:24:24;1.43;;;1.30;;
30147;SDS011;16960;49.404;8.248;2023-04-24T11:26:53;1.60;;;1.50;;
30147;SDS011;16960;49.404;8.248;2023-04-24T11:29:22;1.40;;;1.30;;
30147;SDS011;16960;49.404;8.248;2023-04-24T11:31:50;1.93;;;1.20;;
30147;SDS011;16960;49.404;8.248;2023-04-24T11:34:18;1.33;;;1.23;;
30147;SDS011;16960;49.404;8.248;2023-04-24T11:36:45;1.60;;;1.50;;
30147;SDS011;16960;49.404;8.248;2023-04-24T11:39:13;1.50;;;1.40;;
30147;SDS011;16960;49.404;8.248;2023-04-24T11:41:40;2.40;;;1.40;;
30147;SDS011;16960;49.404;8.248;2023-04-24T11:44:08;1.57;;;1.33;;
30147;SDS011;16960;49.404;8.248;2023-04-24T11:46:36;1.63;;;1.50;;
30147;SDS011;16960;49.404;8.248;2023-04-24T11:49:06;1.53;;;1.43;;
30147;SDS011;16960;49.404;8.248;2023-04-24T11:51:33;1.80;;;1.50;;
30147;SDS011;16960;49.404;8.248;2023-04-24T11:54:01;1.50;;;1.40;;
30147;SDS011;16960;49.404;8.248;2023-04-24T11:56:28;1.93;;;1.40;;
30147;SDS011;16960;49.404;8.248;2023-04-24T11:58:55;1.30;;;1.20;;
30147;SDS011;16960;49.404;8.248;2023-04-24T12:01:22;2.73;;;1.20;;
30147;SDS011;16960;49.404;8.248;2023-04-24T12:03:49;1.80;;;1.60;;
30147;SDS011;16960;49.404;8.248;2023-04-24T12:06:18;1.67;;;1.37;;
30147;SDS011;16960;49.404;8.248;2023-04-24T12:08:46;2.73;;;1.13;;
30147;SDS011;16960;49.404;8.248;2023-04-24T12:11:14;1.03;;;0.93;;
30147;SDS011;16960;49.404;8.248;2023-04-24T12:13:43;3.50;;;1.20;;
30147;SDS011;16960;49.404;8.248;2023-04-24T12:16:11;1.30;;;1.20;;
30147;SDS011;16960;49.404;8.248;2023-04-24T12:18:41;2.57;;;1.40;;
30147;SDS011;16960;49.404;8.248;2023-04-24T12:21:16;2.00;;;1.43;;
30147;SDS011;16960;49.404;8.248;2023-04-24T12:23:53;1.40;;;1.30;;
30147;SDS011;16960;49.404;8.248;2023-04-24T12:26:21;1.43;;;1.33;;
30147;SDS011;16960;49.404;8.248;2023-04-24T12:28:48;1.90;;;1.60;;
30147;SDS011;16960;49.404;8.248;2023-04-24T12:31:16;3.03;;;1.87;;
30147;SDS011;16960;49.404;8.248;2023-04-24T12:33:43;1.70;;;1.50;;
30147;SDS011;16960;49.404;8.248;2023-04-24T12:36:10;1.80;;;1.70;;
30147;SDS011;16960;49.404;8.248;2023-04-24T12:38:42;1.43;;;1.33;;
30147;SDS011;16960;49.404;8.248;2023-04-24T12:41:12;1.63;;;1.20;;
30147;SDS011;16960;49.404;8.248;2023-04-24T12:43:50;1.87;;;1.67;;
30147;SDS011;16960;49.404;8.248;2023-04-24T12:46:18;2.23;;;1.70;;
30147;SDS011;16960;49.404;8.248;2023-04-24T12:48:45;3.00;;;1.73;;
30147;SDS011;16960;49.404;8.248;2023-04-24T12:51:12;1.70;;;1.37;;
30147;SDS011;16960;49.404;8.248;2023-04-24T12:53:40;1.80;;;1.70;;
30147;SDS011;16960;49.404;8.248;2023-04-24T12:56:07;1.93;;;1.60;;
30147;SDS011;16960;49.404;8.248;2023-04-24T12:58:34;2.77;;;1.67;;
30147;SDS011;16960;49.404;8.248;2023-04-24T13:01:01;2.90;;;1.50;;
30147;SDS011;16960;49.404;8.248;2023-04-24T13:03:28;1.87;;;1.73;;
30147;SDS011;16960;49.404;8.248;2023-04-24T13:05:55;1.50;;;1.40;;
30147;SDS011;16960;49.404;8.248;2023-04-24T13:08:22;1.40;;;1.30;;
30147;SDS011;16960;49.404;8.248;2023-04-24T13:10:50;2.00;;;1.60;;
30147;SDS011;16960;49.404;8.248;2023-04-24T13:13:19;1.93;;;1.60;;
30147;SDS011;16960;49.404;8.248;2023-04-24T13:15:45;1.53;;;1.30;;
30147;SDS011;16960;49.404;8.248;2023-04-24T13:18:12;1.60;;;1.50;;
30147;SDS011;16960;49.404;8.248;2023-04-24T13:20:39;2.20;;;1.60;;
30147;SDS011;16960;49.404;8.248;2023-04-24T13:23:06;2.90;;;1.50;;
30147;SDS011;16960;49.404;8.248;2023-04-24T13:25:34;1.93;;;1.73;;
30147;SDS011;16960;49.404;8.248;2023-04-24T13:28:03;1.60;;;1.50;;
30147;SDS011;16960;49.404;8.248;2023-04-24T13:30:30;1.73;;;1.60;;
30147;SDS011;16960;49.404;8.248;2023-04-24T13:32:58;1.73;;;1.50;;
30147;SDS011;16960;49.404;8.248;2023-04-24T13:35:25;1.93;;;1.83;;
30147;SDS011;16960;49.404;8.248;2023-04-24T13:37:52;2.13;;;1.80;;
30147;SDS011;16960;49.404;8.248;2023-04-24T13:40:19;2.10;;;1.50;;
30147;SDS011;16960;49.404;8.248;2023-04-24T13:42:46;1.60;;;1.50;;
30147;SDS011;16960;49.404;8.248;2023-04-24T13:45:14;1.67;;;1.40;;
30147;SDS011;16960;49.404;8.248;2023-04-24T13:47:41;1.90;;;1.80;;
30147;SDS011;16960;49.404;8.248;2023-04-24T13:50:09;1.70;;;1.60;;
30147;SDS011;16960;49.404;8.248;2023-04-24T13:52:36;2.50;;;1.13;;
30147;SDS011;16960;49.404;8.248;2023-04-24T13:55:03;2.53;;;1.80;;
30147;SDS011;16960;49.404;8.248;2023-04-24T13:57:32;3.37;;;1.77;;
30147;SDS011;16960;49.404;8.248;2023-04-24T13:59:59;1.87;;;1.73;;
30147;SDS011;16960;49.404;8.248;2023-04-24T14:02:30;1.30;;;1.20;;
30147;SDS011;16960;49.404;8.248;2023-04-24T14:04:57;1.37;;;1.27;;
30147;SDS011;16960;49.404;8.248;2023-04-24T14:07:24;1.43;;;1.33;;
30147;SDS011;16960;49.404;8.248;2023-04-24T14:09:51;2.53;;;2.03;;
30147;SDS011;16960;49.404;8.248;2023-04-24T14:12:18;2.37;;;1.60;;
30147;SDS011;16960;49.404;8.248;2023-04-24T14:14:46;1.70;;;1.60;;
30147;SDS011;16960;49.404;8.248;2023-04-24T14:17:13;3.03;;;1.50;;
30147;SDS011;16960;49.404;8.248;2023-04-24T14:19:41;1.60;;;1.30;;
30147;SDS011;16960;49.404;8.248;2023-04-24T14:22:09;2.17;;;1.70;;
30147;SDS011;16960;49.404;8.248;2023-04-24T14:24:36;1.80;;;1.67;;
30147;SDS011;16960;49.404;8.248;2023-04-24T14:27:03;1.80;;;1.70;;
30147;SDS011;16960;49.404;8.248;2023-04-24T14:29:30;2.07;;;1.87;;
30147;SDS011;16960;49.404;8.248;2023-04-24T14:31:57;2.77;;;1.70;;
30147;SDS011;16960;49.404;8.248;2023-04-24T14:34:24;1.47;;;1.30;;
30147;SDS011;16960;49.404;8.248;2023-04-24T14:36:52;1.70;;;1.60;;
30147;SDS011;16960;49.404;8.248;2023-04-24T14:39:20;1.40;;;1.30;;
30147;SDS011;16960;49.404;8.248;2023-04-24T14:41:47;1.50;;;1.40;;
30147;SDS011;16960;49.404;8.248;2023-04-24T14:44:14;1.73;;;1.20;;
30147;SDS011;16960;49.404;8.248;2023-04-24T14:46:41;1.53;;;1.43;;
30147;SDS011;16960;49.404;8.248;2023-04-24T14:49:08;3.30;;;1.60;;
30147;SDS011;16960;49.404;8.248;2023-04-24T14:51:36;1.83;;;1.73;;
30147;SDS011;16960;49.404;8.248;2023-04-24T14:54:05;2.90;;;1.47;;
30147;SDS011;16960;49.404;8.248;2023-04-24T14:56:32;1.80;;;1.70;;
30147;SDS011;16960;49.404;8.248;2023-04-24T14:58:59;4.53;;;1.73;;